createdAt,value
2024-02-26T00:02:05.183Z,54.70
2024-02-26T00:04:54.603Z,54.80
2024-02-26T00:07:44.058Z,54.70
2024-02-26T00:10:33.563Z,54.70
2024-02-26T00:13:24.365Z,54.70
2024-02-26T00:16:13.763Z,54.80
2024-02-26T00:19:03.213Z,54.70
2024-02-26T00:21:52.553Z,54.70
2024-02-26T00:24:43.192Z,54.60
2024-02-26T00:27:32.572Z,54.50
2024-02-26T00:30:23.848Z,54.40
2024-02-26T00:33:13.360Z,54.50
2024-02-26T00:36:02.741Z,54.50
2024-02-26T00:38:52.839Z,54.40
2024-02-26T00:41:43.303Z,54.30
2024-02-26T00:44:33.091Z,54.30
2024-02-26T00:47:23.740Z,54.30
2024-02-26T00:50:13.057Z,54.40
2024-02-26T00:53:02.420Z,54.40
2024-02-26T00:55:51.840Z,54.40
2024-02-26T00:58:41.210Z,54.40
2024-02-26T01:01:30.640Z,54.30
2024-02-26T01:04:21.445Z,54.30
2024-02-26T01:07:12.402Z,54.40
2024-02-26T01:10:01.770Z,54.30
2024-02-26T01:12:51.082Z,54.30
2024-02-26T01:15:40.436Z,54.40
2024-02-26T01:18:29.964Z,54.40
2024-02-26T01:21:20.883Z,54.40
2024-02-26T01:24:10.458Z,54.40
2024-02-26T01:27:00.001Z,54.30
2024-02-26T01:29:49.372Z,54.40
2024-02-26T01:32:39.462Z,54.50
2024-02-26T01:35:28.902Z,54.50
2024-02-26T01:38:19.791Z,54.50
2024-02-26T01:41:09.090Z,54.70
2024-02-26T01:43:58.403Z,54.70
2024-02-26T01:46:48.079Z,54.70
2024-02-26T01:49:38.311Z,54.80
2024-02-26T01:52:28.386Z,54.90
2024-02-26T01:55:21.072Z,54.90
2024-02-26T01:58:11.161Z,55.30
2024-02-26T02:01:01.806Z,55.30
2024-02-26T02:03:51.194Z,55.20
2024-02-26T02:06:41.023Z,55.50
2024-02-26T02:09:30.992Z,55.50
2024-02-26T02:12:22.027Z,55.70
2024-02-26T02:15:11.910Z,55.60
2024-02-26T02:18:01.522Z,55.80
2024-02-26T02:20:52.384Z,56.10
2024-02-26T02:23:43.851Z,56.20
2024-02-26T02:26:33.346Z,56.00
2024-02-26T02:29:23.173Z,55.90
2024-02-26T02:32:12.771Z,55.90
2024-02-26T02:35:02.206Z,55.90
2024-02-26T02:37:54.607Z,55.90
2024-02-26T02:40:44.000Z,56.00
2024-02-26T02:43:33.352Z,55.90
2024-02-26T02:46:22.659Z,55.70
2024-02-26T02:49:12.675Z,55.70
2024-02-26T02:52:02.249Z,55.80
2024-02-26T02:54:52.958Z,55.90
2024-02-26T02:57:43.808Z,56.00
2024-02-26T03:00:33.265Z,55.80
2024-02-26T03:03:25.261Z,55.90
2024-02-26T03:06:14.727Z,56.30
2024-02-26T03:09:04.181Z,56.20
2024-02-26T03:11:54.848Z,56.20
2024-02-26T03:14:44.369Z,56.30
2024-02-26T03:17:33.950Z,56.30
2024-02-26T03:20:23.376Z,56.60
2024-02-26T03:23:15.871Z,56.60
2024-02-26T03:26:05.805Z,56.70
2024-02-26T03:28:56.519Z,56.80
2024-02-26T03:31:45.788Z,57.00
2024-02-26T03:34:36.287Z,57.00
2024-02-26T03:37:25.920Z,57.10
2024-02-26T03:40:16.293Z,57.20
2024-02-26T03:43:08.193Z,57.20
2024-02-26T03:45:58.852Z,57.10
2024-02-26T03:48:48.292Z,57.00
2024-02-26T03:51:38.600Z,57.00
2024-02-26T03:54:27.999Z,57.00
2024-02-26T03:57:17.489Z,56.90
2024-02-26T04:00:08.614Z,56.90
2024-02-26T04:03:03.185Z,56.90
2024-02-26T04:05:52.679Z,56.90
2024-02-26T04:08:42.167Z,57.00
2024-02-26T04:11:31.610Z,57.10
2024-02-26T04:14:21.034Z,57.20
2024-02-26T04:17:10.555Z,57.20
2024-02-26T04:20:01.390Z,57.50
2024-02-26T04:22:50.712Z,58.00
2024-02-26T04:25:40.084Z,58.10
2024-02-26T04:28:30.123Z,58.20
2024-02-26T04:31:19.953Z,58.70
2024-02-26T04:34:11.370Z,59.40
2024-02-26T04:37:03.468Z,62.70
2024-02-26T04:39:52.814Z,62.20
2024-02-26T04:42:42.181Z,61.50
2024-02-26T04:45:31.530Z,61.20
2024-02-26T04:48:21.165Z,61.30
2024-02-26T04:51:10.795Z,61.30
2024-02-26T04:54:01.651Z,61.20
2024-02-26T04:56:51.388Z,61.10
2024-02-26T04:59:42.122Z,60.90
2024-02-26T05:02:33.379Z,60.90
2024-02-26T05:05:22.697Z,61.50
2024-02-26T05:08:12.068Z,62.00
2024-02-26T05:11:03.751Z,61.70
2024-02-26T05:13:53.109Z,61.30
2024-02-26T05:16:42.534Z,61.80
2024-02-26T05:19:32.099Z,60.70
2024-02-26T05:22:21.494Z,60.70
2024-02-26T05:25:10.957Z,60.70
2024-02-26T05:28:01.794Z,60.60
2024-02-26T05:30:51.174Z,60.80
2024-02-26T05:33:40.600Z,60.80
2024-02-26T05:36:34.288Z,60.90
2024-02-26T05:39:23.794Z,61.00
2024-02-26T05:42:13.140Z,61.00
2024-02-26T05:45:07.314Z,60.90
2024-02-26T05:47:56.774Z,61.00
2024-02-26T05:50:46.346Z,60.90
2024-02-26T05:53:35.699Z,60.80
2024-02-26T05:56:25.228Z,61.00
2024-02-26T05:59:16.498Z,61.20
2024-02-26T06:02:07.346Z,61.50
2024-02-26T06:04:56.817Z,62.00
2024-02-26T06:07:46.188Z,62.60
2024-02-26T06:10:35.546Z,63.20
2024-02-26T06:13:24.948Z,63.80
2024-02-26T06:16:14.291Z,64.30
2024-02-26T06:19:05.348Z,65.20
2024-02-26T06:21:54.757Z,65.80
2024-02-26T06:24:44.139Z,66.60
2024-02-26T06:27:34.085Z,67.30
2024-02-26T06:30:23.488Z,68.60
2024-02-26T06:33:13.122Z,70.70
2024-02-26T06:36:06.714Z,73.40
2024-02-26T06:38:56.243Z,77.40
2024-02-26T06:41:47.791Z,79.10
2024-02-26T06:44:37.081Z,81.60
2024-02-26T06:47:27.126Z,83.50
2024-02-26T06:50:16.791Z,86.00
2024-02-26T06:53:08.450Z,88.30
2024-02-26T06:55:57.760Z,89.60
2024-02-26T06:58:47.037Z,90.00
2024-02-26T07:01:36.417Z,87.60
2024-02-26T07:04:25.772Z,84.40
2024-02-26T07:07:15.466Z,80.00
2024-02-26T07:10:07.627Z,77.10
2024-02-26T07:12:56.967Z,74.80
2024-02-26T07:15:46.313Z,73.20
2024-02-26T07:18:35.911Z,72.10
2024-02-26T07:21:25.396Z,71.40
2024-02-26T07:24:15.721Z,71.30
2024-02-26T07:27:06.853Z,71.10
2024-02-26T07:29:56.270Z,72.00
2024-02-26T07:32:48.208Z,73.10
2024-02-26T07:35:40.001Z,76.00
2024-02-26T07:38:37.070Z,79.30
2024-02-26T07:41:32.191Z,82.00
2024-02-26T07:44:22.959Z,84.30
2024-02-26T07:47:12.356Z,86.70
2024-02-26T07:50:02.069Z,89.70
2024-02-26T07:52:52.509Z,91.40
2024-02-26T07:55:41.908Z,92.60
2024-02-26T07:58:31.263Z,92.20
2024-02-26T08:01:22.066Z,91.40
2024-02-26T08:04:11.691Z,90.70
2024-02-26T08:07:01.362Z,90.00
2024-02-26T08:09:50.786Z,90.20
2024-02-26T08:12:40.155Z,90.40
2024-02-26T08:15:29.484Z,88.60
2024-02-26T08:18:20.641Z,85.90
2024-02-26T08:21:10.709Z,83.70
2024-02-26T08:24:00.166Z,81.00
2024-02-26T08:26:49.636Z,80.90
2024-02-26T08:29:39.128Z,80.50
2024-02-26T08:32:28.808Z,77.80
2024-02-26T08:35:19.631Z,74.50
2024-02-26T08:38:09.311Z,75.20
2024-02-26T08:40:59.048Z,72.00
2024-02-26T08:43:48.391Z,71.40
2024-02-26T08:46:37.961Z,70.20
2024-02-26T08:49:27.421Z,70.50
2024-02-26T08:52:18.284Z,68.30
2024-02-26T08:55:09.955Z,69.10
2024-02-26T08:57:59.341Z,67.80
2024-02-26T09:00:48.849Z,67.50
2024-02-26T09:03:38.358Z,67.20
2024-02-26T09:06:28.090Z,66.00
2024-02-26T09:09:18.959Z,65.10
2024-02-26T09:12:08.815Z,64.40
2024-02-26T09:14:58.716Z,65.10
2024-02-26T09:17:51.396Z,65.80
2024-02-26T09:20:41.006Z,65.80
2024-02-26T09:23:30.578Z,66.50
2024-02-26T09:26:21.394Z,64.10
2024-02-26T09:29:10.789Z,63.10
2024-02-26T09:32:00.126Z,63.80
2024-02-26T09:34:49.518Z,63.50
2024-02-26T09:37:38.960Z,62.70
2024-02-26T09:40:29.025Z,62.00
2024-02-26T09:43:23.953Z,60.70
2024-02-26T09:46:13.429Z,61.10
2024-02-26T09:49:03.120Z,60.90
2024-02-26T09:51:54.951Z,61.00
2024-02-26T09:54:45.167Z,61.40
2024-02-26T09:57:35.159Z,61.00
2024-02-26T10:00:27.833Z,61.80
2024-02-26T10:03:18.151Z,61.40
2024-02-26T10:06:08.423Z,62.20
2024-02-26T10:09:00.148Z,62.00
2024-02-26T10:11:51.730Z,61.80
2024-02-26T10:14:41.115Z,61.50
2024-02-26T10:17:32.293Z,62.60
2024-02-26T10:20:24.790Z,60.10
2024-02-26T10:23:14.278Z,61.70
2024-02-26T10:26:04.051Z,62.20
2024-02-26T10:28:55.542Z,61.20
2024-02-26T10:31:45.389Z,60.40
2024-02-26T10:34:39.149Z,61.20
2024-02-26T10:37:30.159Z,59.30
2024-02-26T10:40:19.977Z,59.00
2024-02-26T10:43:09.804Z,57.90
2024-02-26T10:45:59.724Z,57.60
2024-02-26T10:48:53.275Z,58.20
2024-02-26T10:51:47.732Z,57.20
2024-02-26T10:54:40.192Z,56.10
2024-02-26T10:57:33.354Z,55.20
2024-02-26T11:00:22.978Z,54.50
2024-02-26T11:03:14.973Z,53.40
2024-02-26T11:06:06.407Z,52.50
2024-02-26T11:08:57.424Z,52.40
2024-02-26T11:11:47.160Z,52.90
2024-02-26T11:14:37.325Z,52.20
2024-02-26T11:17:32.419Z,51.60
2024-02-26T11:20:22.481Z,51.40
2024-02-26T11:23:11.911Z,51.10
2024-02-26T11:26:03.729Z,50.90
2024-02-26T11:28:54.611Z,51.20
2024-02-26T11:31:44.574Z,51.30
2024-02-26T11:34:34.368Z,51.30
2024-02-26T11:37:24.196Z,51.60
2024-02-26T11:40:14.708Z,51.20
2024-02-26T11:43:05.703Z,51.10
2024-02-26T11:46:00.405Z,50.80
2024-02-26T11:48:50.073Z,50.40
2024-02-26T11:51:39.620Z,49.50
2024-02-26T11:54:45.540Z,49.40
2024-02-26T11:57:42.082Z,49.60
2024-02-26T12:00:33.767Z,49.80
2024-02-26T12:03:24.769Z,49.70
2024-02-26T12:06:15.213Z,49.80
2024-02-26T12:09:04.961Z,49.70
2024-02-26T12:11:54.396Z,49.60
2024-02-26T12:14:54.363Z,49.90
2024-02-26T12:17:51.657Z,49.80
2024-02-26T12:20:41.101Z,50.10
2024-02-26T12:23:31.155Z,50.20
2024-02-26T12:26:20.558Z,50.20
2024-02-26T12:29:10.866Z,50.20
2024-02-26T12:32:00.355Z,50.10
2024-02-26T12:34:51.581Z,50.00
2024-02-26T12:37:44.341Z,49.90
2024-02-26T12:40:34.304Z,50.00
2024-02-26T12:43:24.029Z,50.30
2024-02-26T12:46:16.465Z,50.30
2024-02-26T12:49:05.975Z,50.40
2024-02-26T12:52:02.447Z,50.50
2024-02-26T12:54:52.257Z,50.70
2024-02-26T12:57:44.230Z,51.00
2024-02-26T13:00:34.029Z,51.60
2024-02-26T13:03:24.700Z,51.20
2024-02-26T13:06:14.653Z,51.30
2024-02-26T13:09:05.745Z,51.90
2024-02-26T13:11:56.447Z,51.80
2024-02-26T13:14:45.920Z,52.20
2024-02-26T13:17:35.759Z,52.10
2024-02-26T13:20:29.548Z,52.00
2024-02-26T13:23:19.154Z,52.10
2024-02-26T13:26:11.277Z,52.10
2024-02-26T13:29:04.674Z,52.80
2024-02-26T13:31:58.260Z,53.10
2024-02-26T13:34:47.724Z,52.30
2024-02-26T13:37:37.400Z,52.60
2024-02-26T13:40:26.912Z,52.50
2024-02-26T13:43:17.790Z,52.40
2024-02-26T13:46:07.647Z,52.60
2024-02-26T13:48:57.237Z,52.50
2024-02-26T13:51:47.112Z,52.70
2024-02-26T13:54:36.726Z,52.70
2024-02-26T13:57:26.391Z,52.80
2024-02-26T14:00:19.131Z,52.60
2024-02-26T14:03:08.789Z,52.60
2024-02-26T14:05:59.691Z,52.60
2024-02-26T14:08:49.096Z,52.60
2024-02-26T14:11:38.924Z,52.50
2024-02-26T14:14:28.450Z,52.60
2024-02-26T14:17:19.204Z,52.40
2024-02-26T14:20:10.811Z,52.20
2024-02-26T14:23:00.995Z,52.10
2024-02-26T14:25:50.293Z,52.30
2024-02-26T14:28:39.744Z,52.10
2024-02-26T14:31:29.163Z,52.30
2024-02-26T14:34:20.238Z,52.20
2024-02-26T14:37:09.803Z,52.60
2024-02-26T14:39:59.094Z,52.50
2024-02-26T14:42:48.917Z,52.50
2024-02-26T14:45:39.599Z,52.60
2024-02-26T14:48:30.683Z,52.90
2024-02-26T14:51:21.550Z,52.80
2024-02-26T14:54:11.153Z,52.70
2024-02-26T14:57:00.603Z,52.70
2024-02-26T14:59:51.346Z,52.80
2024-02-26T15:02:40.794Z,52.60
2024-02-26T15:05:30.133Z,52.60
2024-02-26T15:08:20.919Z,52.60
2024-02-26T15:11:10.593Z,52.90
2024-02-26T15:14:00.004Z,52.60
2024-02-26T15:16:49.416Z,52.70
2024-02-26T15:19:38.978Z,53.00
2024-02-26T15:22:28.714Z,53.00
2024-02-26T15:25:20.567Z,53.20
2024-02-26T15:28:10.971Z,53.10
2024-02-26T15:31:00.381Z,53.20
2024-02-26T15:33:49.906Z,53.20
2024-02-26T15:36:39.416Z,53.90
2024-02-26T15:39:28.862Z,53.30
2024-02-26T15:42:19.834Z,52.90
2024-02-26T15:45:10.369Z,53.10
2024-02-26T15:47:59.883Z,53.30
2024-02-26T15:50:49.559Z,53.40
2024-02-26T15:53:39.025Z,53.40
2024-02-26T15:56:28.430Z,53.40
2024-02-26T15:59:20.753Z,53.70
2024-02-26T16:02:10.210Z,53.70
2024-02-26T16:04:59.577Z,53.30
2024-02-26T16:07:51.987Z,53.20
2024-02-26T16:10:41.992Z,53.10
2024-02-26T16:13:31.825Z,52.90
2024-02-26T16:16:25.919Z,52.90
2024-02-26T16:19:20.814Z,53.10
2024-02-26T16:22:10.450Z,53.30
2024-02-26T16:25:00.013Z,53.10
2024-02-26T16:27:49.753Z,53.10
2024-02-26T16:30:39.153Z,52.90
2024-02-26T16:33:30.015Z,53.00
2024-02-26T16:36:19.536Z,53.10
2024-02-26T16:39:09.592Z,53.00
2024-02-26T16:41:58.978Z,53.30
2024-02-26T16:44:48.420Z,53.20
2024-02-26T16:47:38.065Z,53.40
2024-02-26T16:50:28.881Z,53.30
2024-02-26T16:53:18.311Z,52.90
2024-02-26T16:56:12.064Z,52.90
2024-02-26T16:59:01.455Z,53.10
2024-02-26T17:01:52.549Z,53.00
2024-02-26T17:04:42.538Z,53.20
2024-02-26T17:07:33.258Z,53.20
2024-02-26T17:10:22.839Z,53.10
2024-02-26T17:13:13.434Z,53.20
2024-02-26T17:16:02.915Z,53.70
2024-02-26T17:18:52.466Z,54.00
2024-02-26T17:21:41.979Z,54.00
2024-02-26T17:24:33.144Z,54.20
2024-02-26T17:27:22.504Z,54.20
2024-02-26T17:30:13.131Z,54.20
2024-02-26T17:33:03.131Z,54.20
2024-02-26T17:35:52.558Z,54.20
2024-02-26T17:38:42.468Z,54.30
2024-02-26T17:41:33.523Z,54.30
2024-02-26T17:44:25.877Z,54.50
2024-02-26T17:47:15.297Z,54.60
2024-02-26T17:50:05.901Z,54.70
2024-02-26T17:52:57.613Z,54.90
2024-02-26T17:55:47.023Z,54.90
2024-02-26T17:58:41.950Z,55.00
2024-02-26T18:01:31.867Z,55.20
2024-02-26T18:04:21.597Z,55.00
2024-02-26T18:07:14.018Z,55.10
2024-02-26T18:10:03.809Z,55.20
2024-02-26T18:12:54.344Z,55.10
2024-02-26T18:15:45.427Z,55.10
2024-02-26T18:18:34.934Z,55.00
2024-02-26T18:21:25.965Z,54.90
2024-02-26T18:24:15.486Z,54.70
2024-02-26T18:27:05.766Z,54.80
2024-02-26T18:29:55.219Z,54.70
2024-02-26T18:32:47.787Z,54.70
2024-02-26T18:35:38.279Z,54.90
2024-02-26T18:38:27.689Z,54.90
2024-02-26T18:41:21.768Z,54.80
2024-02-26T18:44:12.084Z,55.00
2024-02-26T18:47:01.461Z,54.80
2024-02-26T18:49:52.235Z,54.90
2024-02-26T18:52:41.958Z,54.90
2024-02-26T18:55:31.592Z,54.80
2024-02-26T18:58:21.035Z,54.90
2024-02-26T19:01:11.366Z,54.90
2024-02-26T19:04:00.905Z,54.80
2024-02-26T19:06:52.026Z,54.70
2024-02-26T19:09:41.991Z,54.70
2024-02-26T19:12:31.636Z,54.60
2024-02-26T19:15:21.614Z,54.50
2024-02-26T19:18:12.397Z,54.50
2024-02-26T19:21:02.293Z,54.40
2024-02-26T19:23:53.473Z,54.30
2024-02-26T19:26:43.077Z,54.50
2024-02-26T19:29:32.454Z,54.40
2024-02-26T19:32:22.302Z,54.40
2024-02-26T19:35:11.823Z,54.40
2024-02-26T19:38:01.236Z,54.50
2024-02-26T19:40:51.973Z,54.60
2024-02-26T19:43:41.255Z,54.70
2024-02-26T19:46:30.611Z,54.50
2024-02-26T19:49:20.052Z,54.70
2024-02-26T19:52:10.300Z,54.70
2024-02-26T19:55:00.169Z,54.90
2024-02-26T19:57:50.866Z,54.90
2024-02-26T20:00:40.485Z,55.00
2024-02-26T20:03:30.054Z,55.10
2024-02-26T20:06:19.799Z,55.30
2024-02-26T20:09:10.251Z,55.50
2024-02-26T20:12:01.437Z,55.80
2024-02-26T20:14:52.258Z,56.00
2024-02-26T20:17:41.664Z,56.20
2024-02-26T20:20:31.043Z,56.30
2024-02-26T20:23:20.367Z,56.40
2024-02-26T20:26:10.616Z,56.40
2024-02-26T20:29:00.504Z,56.30
2024-02-26T20:31:52.652Z,56.30
2024-02-26T20:34:42.454Z,56.30
2024-02-26T20:37:31.885Z,56.30
2024-02-26T20:40:21.402Z,56.20
2024-02-26T20:43:10.815Z,56.20
2024-02-26T20:46:00.291Z,55.90
2024-02-26T20:48:51.224Z,56.00
2024-02-26T20:51:41.273Z,56.30
2024-02-26T20:54:30.785Z,56.60
2024-02-26T20:57:20.213Z,56.80
2024-02-26T21:00:11.336Z,57.00
2024-02-26T21:03:03.398Z,57.10
2024-02-26T21:05:54.308Z,57.20
2024-02-26T21:08:43.696Z,57.40
2024-02-26T21:11:33.352Z,57.60
2024-02-26T21:14:22.631Z,57.70
2024-02-26T21:17:12.005Z,57.60
2024-02-26T21:20:01.811Z,57.80
2024-02-26T21:22:53.062Z,58.00
2024-02-26T21:25:42.424Z,58.00
2024-02-26T21:28:31.868Z,58.10
2024-02-26T21:31:21.210Z,58.20
2024-02-26T21:34:10.703Z,58.30
2024-02-26T21:37:00.228Z,58.50
2024-02-26T21:39:50.877Z,58.50
2024-02-26T21:42:42.715Z,58.50
2024-02-26T21:45:32.144Z,58.60
2024-02-26T21:48:21.627Z,58.60
2024-02-26T21:51:11.796Z,58.60
2024-02-26T21:54:01.182Z,58.60
2024-02-26T21:56:52.484Z,58.60
2024-02-26T21:59:41.887Z,58.70
2024-02-26T22:02:32.178Z,58.70
2024-02-26T22:05:21.544Z,58.60
2024-02-26T22:08:10.994Z,58.70
2024-02-26T22:11:01.467Z,58.80
2024-02-26T22:13:52.884Z,58.80
2024-02-26T22:16:42.291Z,59.00
2024-02-26T22:19:31.724Z,59.00
2024-02-26T22:22:21.596Z,59.00
2024-02-26T22:25:11.081Z,59.00
2024-02-26T22:28:00.455Z,59.00
2024-02-26T22:30:51.141Z,58.90
2024-02-26T22:33:40.590Z,59.00
2024-02-26T22:36:30.103Z,59.00
2024-02-26T22:39:19.466Z,58.90
2024-02-26T22:42:08.924Z,59.00
2024-02-26T22:44:58.395Z,59.10
2024-02-26T22:47:49.215Z,59.00
2024-02-26T22:50:38.630Z,59.20
2024-02-26T22:53:29.033Z,59.30
2024-02-26T22:56:19.184Z,59.40
2024-02-26T22:59:09.282Z,59.50
2024-02-26T23:01:58.966Z,61.10
2024-02-26T23:04:49.712Z,60.60
2024-02-26T23:07:39.133Z,60.70
2024-02-26T23:10:28.788Z,60.70
2024-02-26T23:13:18.173Z,60.90
2024-02-26T23:16:08.103Z,61.00
2024-02-26T23:18:57.478Z,61.10
2024-02-26T23:21:48.388Z,61.90
2024-02-26T23:24:37.882Z,61.50
2024-02-26T23:27:27.357Z,61.50
2024-02-26T23:30:19.183Z,61.70
2024-02-26T23:33:08.969Z,61.80
2024-02-26T23:35:58.425Z,62.00
2024-02-26T23:38:49.133Z,62.20
2024-02-26T23:41:38.504Z,62.40
2024-02-26T23:44:27.811Z,62.50
2024-02-26T23:47:17.966Z,62.70
2024-02-26T23:50:08.660Z,63.10
2024-02-26T23:52:58.568Z,64.00
2024-02-26T23:55:49.234Z,62.70
2024-02-26T23:58:38.569Z,63.10
